VISIB

Not for real navigation. The accuracy of this data is not assured See disclaimer for more information



ICAO NAME COUNTRY WIND Kt GUST Kt VIS m TEMP/DEW C BARO METAR
LIMH Pian Rosa Italy 0 0 100 -3/-3 30.21 LIMH 150655Z /////KT 0100 FZFG VV/// M03/M03 Q1023 RMK MON INVIS VAL INVIS VIS MIN 0100
OIAM Bandar Mahshahr / Mahshahr Iran 19 0 100 28/13 29.97 OIAM 150700Z 33019KT 0100 DU VV/// 28/13 Q1015
LIVF Frontone Italy 0 0 100 12/11 30.03 LIVF 150655Z 00000KT 0100 FG VV/// 12/11 Q1017 RMK MON INVIS VAL INVIS VIS MIN 0100
EKKA Karup Denmark 1 0 200 14/14 29.88 EKKA 150750Z 27001KT 0200 R09/1600D R27/0650N FG VV001 14/14 Q1012 TEMPO 1200 BR BKN003
EGKB Biggin Hill United Kingdom 4 0 200 12/12 29.80 EGKB 150750Z 34004KT 310V010 0200 R21/0350 FG VV/// 12/12 Q1009

Show more